Rechercher aéroport 
image banner adimage banner adimage banner ad
image banner ad

PN72 - Rocky Hollow Field

Situé à Strongstown, United States

ICAO - PN72, IATA -

Données fournies par Airmate  

Information générale

Coordonnées: N40°34'9" W78°52'57"
Élévation : 1806 feet MSL.
 
Voir autres Aéroports à Pennsylvania

Données opérationnelles

Special qualification required
Heure actuelle UTC:
Heure actuelle locale:
METAR: KIDI 150735Z AUTO 00000KT 1/2SM BR OVC001 13/13 A2992 RMK A01
Voir NOTAMs / SUP AIP / TFR affectant cet aéroport [VIEW]
Fréquences de communication: [VIEW]

Pistes:

Identifiant RWYQFULongueur (ft)Largeur (ft)SurfaceLDA (ft)
061850120GRAVEL
241850120GRAVEL
183335120GRASS
363335120GRASS

Coordonnées de l'aéroport

Adresse: Strongstown United States

Vue satellite de PN72